Monday, April 21, 2014
07:25 UTC
  |  Log In   |  Register Free
Airport Search:

Madison Municipal Airport
(KIMS)

Madison Municipal Airport Diagram
No Airport Diagram Available

FAA data valid effective April 3, 2014 until May 29, 2014 (unless otherwise noted).

 
 
 
 
 
 
 
 
 
 
 
 
 
 

Current Aviation Weather for Madison Municipal Airport (KIMS)

The most recent METAR observation for KLOU was updated at: 0653 UTC
METAR Summary (Translated METAR)
KLOU
210653Z AUTO 00000KT 10SM CLR 14/08 A3008 RMK AO2 SLP182 T01390078
KSDF
(4.7 nm SW from KLOU)
210656Z 00000KT 10SM SCT220 15/08 A3007 RMK AO2 SLP180 T01500078
TAF Summary (Translated TAF)
KSDF
(4.7 nm SW from KLOU)
210520Z 2106/2212 VRB03KT P6SM BKN250 FM211300 23010KT P6SM BKN150 FM220000 24007KT P6SM VCSH BKN050
KFTK
(24.1 nm SW from KLOU)
2101/2207 VRB06KT 9999 SCT200 QNH3005INS BECMG 2114/2115 22009KT 9999 BKN120 QNH2990INS BECMG 2201/2202 22006KT 8000 -RA OVC040 QNH2989INS TX25/2121Z TN11/2112Z
  Airport Weather Conditions for KIMS

Current weather conditions are
not available for IMS


The nearest NOAA weather station
is at LOU, (33.3 nm SW from IMS)
  
 Current Weather at LOU
57° F
Fair
North winds at 0.0 mph
LOU NOAA Radar

Pressure: 30.08 in
Humidity: 67%
Wind: Calm
Dew Point: 46.0°F
Visibility: 10.00 mi


Airport Weather Forecast for KIMS

Translated METAR and TAF for KLOU
Translated METAR for KLOU (0725 UTC 21 April 2014)
found at http://aviationweather.gov/adds/metars/
 
METAR text: KLOU 210653Z AUTO 00000KT 10SM CLR 14/08 A3008 RMK AO2 SLP182 T01390078
Conditions at: KLOU (LOUISVILLE/BOWMN, KY, US) observed 0653 UTC 21 April 2014
Temperature: 13.9°C (57°F)
Dewpoint: 7.8°C (46°F) [RH = 67%]
Pressure (altimeter): 30.08 inches Hg (1018.7 mb)
[Sea-level pressure: 1018.2 mb]
Winds: calm
Visibility: 10 or more miles (16+ km)
Ceiling: at least 12,000 feet AGL
Clouds: sky clear below 12,000 feet AGL
Weather: automated observation with no human augmentation;
there may or may not be significant weather present at this time
Translated TAF for KLOU

There is no translated TAF available for this airport

Find All Airport Services Find A Hotel Find A Rental Car Find A Golf Course Find A Restaurant $100 Hamburger



FBO's on the Field
FBO Company Facility Photos Services Transportation Aviation Fuel Prices: Prices include tax
Catering Weather Repair Courtesy Rental Type 100LL JetA JetA+ MOGAS 8087
 
City of Madison

This FBO has not yet been rated
FS:Phillips66
Last Updated: Mar-28
Login to update fuel prices
SS:
Contact City of MadisonMore FBO Information
 
Add another FBO Facility Photos Catering Weather Repair Courtesy Rental Type 100LL JetA JetA+ MOGAS 8087
Services Transportation Aviation Fuel Prices: Prices include tax


GlobalAir.com Airport Resource Center model-print
model-print
model-print
model-print